createdAt,value
2022-12-09T00:01:15.288Z,-0.10
2022-12-09T00:03:43.824Z,-0.30
2022-12-09T00:06:21.339Z,-0.50
2022-12-09T00:11:18.003Z,-0.20
2022-12-09T00:13:49.600Z,-0.20
2022-12-09T00:18:45.333Z,-0.10
2022-12-09T00:21:18.950Z,-0.20
2022-12-09T00:23:46.886Z,-0.40
2022-12-09T00:26:15.422Z,-0.20
2022-12-09T00:28:43.733Z,-0.20
2022-12-09T00:31:14.826Z,0.10
2022-12-09T00:33:42.366Z,-0.20
2022-12-09T00:36:14.463Z,0.00
2022-12-09T00:38:44.018Z,-0.30
2022-12-09T00:41:12.653Z,-0.30
2022-12-09T00:43:40.431Z,-0.10
2022-12-09T00:46:07.909Z,-0.20
2022-12-09T00:48:38.293Z,-0.20
2022-12-09T00:51:07.271Z,-0.20
2022-12-09T00:53:35.205Z,0.00
2022-12-09T00:56:02.671Z,0.00
2022-12-09T01:00:57.590Z,0.10
2022-12-09T01:03:25.092Z,0.40
2022-12-09T01:05:52.608Z,0.20
2022-12-09T01:08:20.062Z,0.10
2022-12-09T01:10:48.279Z,0.10
2022-12-09T01:13:17.029Z,0.10
2022-12-09T01:18:12.774Z,-0.10
2022-12-09T01:23:08.464Z,0.00
2022-12-09T01:25:38.782Z,0.00
2022-12-09T01:30:34.326Z,-0.10
2022-12-09T01:33:01.919Z,-0.30
2022-12-09T01:35:29.483Z,-0.30
2022-12-09T01:40:25.158Z,-0.50
2022-12-09T01:42:52.469Z,-0.40
2022-12-09T01:45:23.539Z,-0.10
2022-12-09T01:47:58.053Z,-0.30
2022-12-09T01:50:27.419Z,-0.50
2022-12-09T01:55:25.366Z,-0.60
2022-12-09T01:57:53.043Z,-0.70
2022-12-09T02:00:21.604Z,-0.30
2022-12-09T02:02:52.382Z,-0.40
2022-12-09T02:05:23.619Z,-0.40
2022-12-09T02:07:57.254Z,-0.80
2022-12-09T02:10:25.349Z,-0.50
2022-12-09T02:13:34.451Z,-0.50
2022-12-09T02:16:05.350Z,-0.70
2022-12-09T02:18:38.543Z,-0.50
2022-12-09T02:21:26.623Z,-0.40
2022-12-09T02:24:22.850Z,-0.50
2022-12-09T02:27:08.878Z,-0.60
2022-12-09T02:29:44.870Z,-0.70
2022-12-09T02:32:17.124Z,-0.70
2022-12-09T02:35:14.260Z,-0.60
2022-12-09T02:37:54.328Z,-0.80
2022-12-09T02:40:46.054Z,-0.80
2022-12-09T02:43:15.733Z,-0.70
2022-12-09T02:45:44.707Z,-0.90
2022-12-09T02:48:16.621Z,-0.70
2022-12-09T02:50:48.718Z,-0.60
2022-12-09T02:53:18.512Z,-0.70
2022-12-09T02:55:49.104Z,-0.50
2022-12-09T02:58:16.732Z,-0.60
2022-12-09T03:00:44.416Z,-0.60
2022-12-09T03:03:17.005Z,-0.70
2022-12-09T03:06:10.311Z,-0.70
2022-12-09T03:09:05.755Z,-0.60
2022-12-09T03:11:33.883Z,-0.50
2022-12-09T03:14:07.353Z,-0.40
2022-12-09T03:16:40.436Z,-0.60
2022-12-09T03:19:10.172Z,-0.50
2022-12-09T03:21:43.615Z,-0.20
2022-12-09T03:24:15.573Z,-0.40
2022-12-09T03:26:44.361Z,-0.30
2022-12-09T03:29:17.162Z,-0.30
2022-12-09T03:31:45.945Z,-0.40
2022-12-09T03:34:20.001Z,-0.40
2022-12-09T03:36:50.756Z,-0.10
2022-12-09T03:39:24.105Z,-0.20
2022-12-09T03:41:56.299Z,-0.10
2022-12-09T03:44:48.331Z,-0.10
2022-12-09T03:49:43.565Z,0.10
2022-12-09T03:52:23.276Z,-0.10
2022-12-09T03:54:56.057Z,0.00
2022-12-09T03:57:25.430Z,0.20
2022-12-09T03:59:58.666Z,0.20
2022-12-09T04:02:27.328Z,0.20
2022-12-09T04:07:22.837Z,0.10
2022-12-09T04:09:50.680Z,0.40
2022-12-09T04:12:18.273Z,0.10
2022-12-09T04:17:13.496Z,0.20
2022-12-09T04:24:36.899Z,0.60
2022-12-09T04:27:04.337Z,0.50
2022-12-09T04:29:31.548Z,0.20
2022-12-09T04:31:58.925Z,0.70
2022-12-09T04:39:22.175Z,0.40
2022-12-09T04:41:49.444Z,0.70
2022-12-09T04:44:17.022Z,0.40
2022-12-09T04:49:12.551Z,0.80
2022-12-09T04:51:40.492Z,0.50
2022-12-09T04:54:15.327Z,0.90
2022-12-09T04:56:43.266Z,0.70
2022-12-09T04:59:11.042Z,0.90
2022-12-09T05:01:38.562Z,0.90
2022-12-09T05:04:06.458Z,0.80
2022-12-09T05:06:34.605Z,0.50
2022-12-09T05:09:03.530Z,0.80
2022-12-09T05:11:31.309Z,0.70
2022-12-09T05:13:59.130Z,0.80
2022-12-09T05:16:26.715Z,0.50
2022-12-09T05:18:54.721Z,0.80
2022-12-09T05:21:22.512Z,2.70
2022-12-09T05:23:50.452Z,1.20
2022-12-09T05:26:20.624Z,0.80
2022-12-09T05:28:49.392Z,0.80
2022-12-09T05:31:20.051Z,0.90
2022-12-09T05:33:49.509Z,1.00
2022-12-09T05:36:20.917Z,0.90
2022-12-09T05:38:49.070Z,0.80
2022-12-09T05:41:17.939Z,0.70
2022-12-09T05:43:45.835Z,0.60
2022-12-09T05:46:14.649Z,0.70
2022-12-09T05:48:42.544Z,0.70
2022-12-09T05:51:22.579Z,0.70
2022-12-09T05:56:19.669Z,0.60
2022-12-09T05:58:47.612Z,0.50
2022-12-09T06:01:15.693Z,0.60
2022-12-09T06:03:45.941Z,0.60
2022-12-09T06:06:16.832Z,1.10
2022-12-09T06:08:45.407Z,0.80
2022-12-09T06:11:16.396Z,0.80
2022-12-09T06:13:44.758Z,0.60
2022-12-09T06:16:14.616Z,0.70
2022-12-09T06:18:42.673Z,0.60
2022-12-09T06:21:12.819Z,0.70
2022-12-09T06:23:42.282Z,0.40
2022-12-09T06:26:17.744Z,0.80
2022-12-09T06:28:45.694Z,0.60
2022-12-09T06:31:13.804Z,0.90
2022-12-09T06:33:58.418Z,0.90
2022-12-09T06:36:29.019Z,0.80
2022-12-09T06:38:58.823Z,0.80
2022-12-09T06:41:28.255Z,1.00
2022-12-09T06:43:59.508Z,1.00
2022-12-09T06:46:28.236Z,1.00
2022-12-09T06:48:56.696Z,1.20
2022-12-09T06:51:25.389Z,1.10
2022-12-09T06:53:54.439Z,1.20
2022-12-09T06:58:50.046Z,1.00
2022-12-09T07:01:20.448Z,1.10
2022-12-09T07:03:51.359Z,1.20
2022-12-09T07:06:37.311Z,1.20
2022-12-09T07:09:09.673Z,1.20
2022-12-09T07:11:37.652Z,1.40
2022-12-09T07:14:06.063Z,1.40
2022-12-09T07:16:35.141Z,1.20
2022-12-09T07:19:04.239Z,1.10
2022-12-09T07:21:32.169Z,1.40
2022-12-09T07:24:01.582Z,1.00
2022-12-09T07:26:33.529Z,1.30
2022-12-09T07:29:07.229Z,1.40
2022-12-09T07:31:35.937Z,1.80
2022-12-09T07:34:05.601Z,1.60
2022-12-09T07:36:35.292Z,1.60
2022-12-09T07:39:06.219Z,1.60
2022-12-09T07:41:34.478Z,1.40
2022-12-09T07:44:02.023Z,1.50
2022-12-09T07:46:29.854Z,1.70
2022-12-09T07:48:58.473Z,1.60
2022-12-09T07:51:26.832Z,1.70
2022-12-09T07:53:54.864Z,1.80
2022-12-09T07:56:23.339Z,3.30
2022-12-09T07:58:53.492Z,1.70
2022-12-09T08:01:30.240Z,1.70
2022-12-09T08:03:58.227Z,1.60
2022-12-09T08:06:28.209Z,1.30
2022-12-09T08:09:01.595Z,1.60
2022-12-09T08:11:31.030Z,1.60
2022-12-09T08:14:05.717Z,1.60
2022-12-09T08:16:36.730Z,1.70
2022-12-09T08:19:04.538Z,1.60
2022-12-09T08:21:33.557Z,1.60
2022-12-09T08:24:03.415Z,1.60
2022-12-09T08:26:32.435Z,1.80
2022-12-09T08:29:00.855Z,1.70
2022-12-09T08:31:29.592Z,1.70
2022-12-09T08:33:57.800Z,1.70
2022-12-09T08:36:27.806Z,2.10
2022-12-09T08:38:58.122Z,1.70
2022-12-09T08:41:38.102Z,1.80
2022-12-09T08:44:08.015Z,1.80
2022-12-09T08:46:37.224Z,2.00
2022-12-09T08:49:06.335Z,1.90
2022-12-09T08:51:34.980Z,1.90
2022-12-09T08:54:03.616Z,1.90
2022-12-09T08:56:31.406Z,2.20
2022-12-09T08:58:58.798Z,2.00
2022-12-09T09:01:32.647Z,2.00
2022-12-09T09:04:03.028Z,2.20
2022-12-09T09:06:31.157Z,2.10
2022-12-09T09:08:59.388Z,2.10
2022-12-09T09:11:28.675Z,2.10
2022-12-09T09:13:56.170Z,2.20
2022-12-09T09:16:26.466Z,2.30
2022-12-09T09:18:54.427Z,2.50
2022-12-09T09:21:24.261Z,2.30
2022-12-09T09:23:51.934Z,2.20
2022-12-09T09:26:25.980Z,2.30
2022-12-09T09:28:55.042Z,2.40
2022-12-09T09:31:25.009Z,2.40
2022-12-09T09:33:53.228Z,2.40
2022-12-09T09:36:23.988Z,2.50
2022-12-09T09:38:54.205Z,2.50
2022-12-09T09:41:27.914Z,3.50
2022-12-09T09:43:56.497Z,2.50
2022-12-09T09:46:44.266Z,2.60
2022-12-09T09:49:36.726Z,2.50
2022-12-09T09:52:09.457Z,2.50
2022-12-09T09:54:37.467Z,2.60
2022-12-09T09:57:25.618Z,2.60
2022-12-09T10:00:16.337Z,2.60
2022-12-09T10:02:47.233Z,2.90
2022-12-09T10:05:26.270Z,2.80
2022-12-09T10:07:59.213Z,2.90
2022-12-09T10:10:41.438Z,2.90
2022-12-09T10:13:18.511Z,3.10
2022-12-09T10:16:15.397Z,3.00
2022-12-09T10:19:07.380Z,3.00
2022-12-09T10:21:41.497Z,2.90
2022-12-09T10:24:26.891Z,3.10
2022-12-09T10:27:00.098Z,3.80
2022-12-09T10:29:59.362Z,2.80
2022-12-09T10:32:32.535Z,3.10
2022-12-09T10:35:01.458Z,3.40
2022-12-09T10:37:32.359Z,3.50
2022-12-09T10:40:10.984Z,3.60
2022-12-09T10:43:12.420Z,3.30
2022-12-09T10:48:48.973Z,3.80
2022-12-09T10:51:22.732Z,3.60
2022-12-09T10:53:59.237Z,3.40
2022-12-09T10:56:29.180Z,3.60
2022-12-09T10:59:10.615Z,3.80
2022-12-09T11:02:07.986Z,3.80
2022-12-09T11:04:41.805Z,3.50
2022-12-09T11:07:13.001Z,3.80
2022-12-09T11:09:47.039Z,3.70
2022-12-09T11:12:20.271Z,3.50
2022-12-09T11:14:56.280Z,3.80
2022-12-09T11:17:27.903Z,4.00
2022-12-09T11:20:22.718Z,4.30
2022-12-09T11:23:01.736Z,4.20
2022-12-09T11:25:33.216Z,4.30
2022-12-09T11:28:23.090Z,4.30
2022-12-09T11:31:27.118Z,4.20
2022-12-09T11:33:50.908Z,4.30
2022-12-09T11:36:23.205Z,4.30
2022-12-09T11:38:53.780Z,4.10
2022-12-09T11:41:41.653Z,4.20
2022-12-09T11:44:24.682Z,4.20
2022-12-09T11:47:04.999Z,4.30
2022-12-09T11:49:37.136Z,4.40
2022-12-09T11:52:20.652Z,4.50
2022-12-09T11:54:57.320Z,4.60
2022-12-09T11:57:33.959Z,4.70
2022-12-09T12:00:06.617Z,5.30
2022-12-09T12:02:47.872Z,4.90
2022-12-09T12:05:32.368Z,5.50
2022-12-09T12:08:26.300Z,5.80
2022-12-09T12:11:00.582Z,6.00
2022-12-09T12:13:41.891Z,6.00
2022-12-09T12:16:20.791Z,6.20
2022-12-09T12:18:53.597Z,6.20
2022-12-09T12:21:35.447Z,6.10
2022-12-09T12:24:05.479Z,6.10
2022-12-09T12:26:45.952Z,6.30
2022-12-09T12:29:30.861Z,6.30
2022-12-09T12:32:14.962Z,6.40
2022-12-09T12:35:03.718Z,6.40
2022-12-09T12:37:37.195Z,7.00
2022-12-09T12:40:14.012Z,7.20
2022-12-09T12:43:12.184Z,7.40
2022-12-09T12:46:28.146Z,7.30
2022-12-09T12:49:15.453Z,7.80
2022-12-09T12:52:00.044Z,8.40
2022-12-09T12:54:58.420Z,9.00
2022-12-09T12:57:44.053Z,9.10
2022-12-09T13:00:17.511Z,9.40
2022-12-09T13:02:59.274Z,9.70
2022-12-09T13:05:35.246Z,9.80
2022-12-09T13:08:21.837Z,9.60
2022-12-09T13:10:55.687Z,9.50
2022-12-09T13:13:38.494Z,9.40
2022-12-09T13:16:32.310Z,9.80
2022-12-09T13:19:34.364Z,9.40
2022-12-09T13:22:03.113Z,9.30
2022-12-09T13:24:48.130Z,9.30
2022-12-09T13:27:28.343Z,9.20
2022-12-09T13:30:01.256Z,8.80
2022-12-09T13:32:58.435Z,8.50
2022-12-09T13:35:37.619Z,8.10
2022-12-09T13:38:24.826Z,7.70
2022-12-09T13:40:53.767Z,7.50
2022-12-09T13:43:27.674Z,7.40
2022-12-09T13:46:00.964Z,8.00
2022-12-09T13:48:43.262Z,7.90
2022-12-09T13:51:10.931Z,7.90
2022-12-09T13:54:02.284Z,8.20
2022-12-09T13:56:33.319Z,8.20
2022-12-09T13:59:32.992Z,8.00
2022-12-09T14:02:33.269Z,7.90
2022-12-09T14:05:10.750Z,7.90
2022-12-09T14:07:46.336Z,8.10
2022-12-09T14:10:38.354Z,8.60
2022-12-09T14:13:33.156Z,8.60
2022-12-09T14:16:28.339Z,9.40
2022-12-09T14:18:57.533Z,9.00
2022-12-09T14:21:28.896Z,9.00
2022-12-09T14:24:08.943Z,9.00
2022-12-09T14:26:45.317Z,9.20
2022-12-09T14:29:32.607Z,9.20
2022-12-09T14:32:03.000Z,9.30
2022-12-09T14:34:36.908Z,9.50
2022-12-09T14:37:24.743Z,9.50
2022-12-09T14:39:56.291Z,9.60
2022-12-09T14:42:43.079Z,9.90
2022-12-09T14:45:10.590Z,9.80
2022-12-09T14:47:45.403Z,9.80
2022-12-09T14:50:16.688Z,9.70
2022-12-09T14:52:53.333Z,9.60
2022-12-09T14:55:23.535Z,9.50
2022-12-09T14:57:52.681Z,9.30
2022-12-09T15:00:29.408Z,9.10
2022-12-09T15:03:30.667Z,8.80
2022-12-09T15:06:03.149Z,8.80
2022-12-09T15:08:40.983Z,8.60
2022-12-09T15:11:18.208Z,8.50
2022-12-09T15:13:47.280Z,8.90
2022-12-09T15:16:17.932Z,8.40
2022-12-09T15:18:46.660Z,9.20
2022-12-09T15:21:28.207Z,8.10
2022-12-09T15:23:56.437Z,8.00
2022-12-09T15:26:30.460Z,7.30
2022-12-09T15:28:59.718Z,6.50
2022-12-09T15:31:29.816Z,6.50
2022-12-09T15:34:00.170Z,6.10
2022-12-09T15:36:36.329Z,7.10
2022-12-09T15:39:24.863Z,5.60
2022-12-09T15:42:07.156Z,5.10
2022-12-09T15:44:53.489Z,5.10
2022-12-09T15:47:25.933Z,4.90
2022-12-09T15:50:03.479Z,5.30
2022-12-09T15:52:38.493Z,4.60
2022-12-09T15:55:09.729Z,4.80
2022-12-09T15:57:37.659Z,4.40
2022-12-09T16:00:05.779Z,4.50
2022-12-09T16:02:37.689Z,4.30
2022-12-09T16:05:09.353Z,4.40
2022-12-09T16:07:37.613Z,4.10
2022-12-09T16:10:15.214Z,4.10
2022-12-09T16:12:43.814Z,4.10
2022-12-09T16:15:14.153Z,3.90
2022-12-09T16:17:54.009Z,4.00
2022-12-09T16:20:33.472Z,3.60
2022-12-09T16:23:02.643Z,3.70
2022-12-09T16:25:37.546Z,3.70
2022-12-09T16:28:06.837Z,3.70
2022-12-09T16:30:45.545Z,3.80
2022-12-09T16:33:19.180Z,3.80
2022-12-09T16:36:05.224Z,3.70
2022-12-09T16:38:37.098Z,3.40
2022-12-09T16:41:08.146Z,3.90
2022-12-09T16:43:37.964Z,3.50
2022-12-09T16:46:14.238Z,3.60
2022-12-09T16:48:42.605Z,3.40
2022-12-09T16:51:17.487Z,3.50
2022-12-09T16:53:47.425Z,3.40
2022-12-09T16:56:21.808Z,3.10
2022-12-09T16:58:49.073Z,3.30
2022-12-09T17:01:17.877Z,3.40
2022-12-09T17:03:52.821Z,3.20
2022-12-09T17:06:20.860Z,3.50
2022-12-09T17:08:48.322Z,2.90
2022-12-09T17:11:16.916Z,3.10
2022-12-09T17:13:44.230Z,3.00
2022-12-09T17:16:11.604Z,3.10
2022-12-09T17:18:39.646Z,3.10
2022-12-09T17:21:13.352Z,2.80
2022-12-09T17:23:41.409Z,2.80
2022-12-09T17:26:16.788Z,2.80
2022-12-09T17:28:46.923Z,2.90
2022-12-09T17:31:17.081Z,2.60
2022-12-09T17:33:44.369Z,2.80
2022-12-09T17:36:13.110Z,2.80
2022-12-09T17:38:41.065Z,2.30
2022-12-09T17:41:12.903Z,2.40
2022-12-09T17:43:40.238Z,2.40
2022-12-09T17:46:07.926Z,2.60
2022-12-09T17:48:35.542Z,2.50
2022-12-09T17:51:08.632Z,2.50
2022-12-09T17:53:41.041Z,2.50
2022-12-09T17:56:13.997Z,2.50
2022-12-09T17:58:42.041Z,2.20
2022-12-09T18:01:18.035Z,2.20
2022-12-09T18:04:07.770Z,3.30
2022-12-09T18:06:34.689Z,2.10
2022-12-09T18:09:04.986Z,2.30
2022-12-09T18:11:32.792Z,2.10
2022-12-09T18:14:00.079Z,2.80
2022-12-09T18:16:28.288Z,2.40
2022-12-09T18:18:55.655Z,2.00
2022-12-09T18:23:51.032Z,2.30
2022-12-09T18:26:19.641Z,2.20
2022-12-09T18:28:47.039Z,2.10
2022-12-09T18:31:17.114Z,2.00
2022-12-09T18:33:44.592Z,2.50
2022-12-09T18:36:14.821Z,1.80
2022-12-09T18:38:43.292Z,1.90
2022-12-09T18:41:12.432Z,2.40
2022-12-09T18:43:41.984Z,2.10
2022-12-09T18:46:15.311Z,2.10
2022-12-09T18:48:42.623Z,2.00
2022-12-09T18:51:18.803Z,2.00
2022-12-09T18:53:46.664Z,2.10
2022-12-09T18:56:15.179Z,2.40
2022-12-09T19:01:31.882Z,1.90
2022-12-09T19:04:02.221Z,1.90
2022-12-09T19:06:35.754Z,1.80
2022-12-09T19:09:09.376Z,1.90
2022-12-09T19:11:39.149Z,1.60
2022-12-09T19:14:07.683Z,1.60
2022-12-09T19:16:35.623Z,2.00
2022-12-09T19:19:09.062Z,1.60
2022-12-09T19:21:38.128Z,1.70
2022-12-09T19:24:06.118Z,1.70
2022-12-09T19:26:35.154Z,1.50
2022-12-09T19:29:05.638Z,1.80
2022-12-09T19:31:37.834Z,1.80
2022-12-09T19:34:08.145Z,1.40
2022-12-09T19:36:35.704Z,1.60
2022-12-09T19:39:06.044Z,1.50
2022-12-09T19:41:33.403Z,1.50
2022-12-09T19:44:01.989Z,1.40
2022-12-09T19:46:29.464Z,1.50
2022-12-09T19:48:58.019Z,1.40
2022-12-09T19:51:26.931Z,1.40
2022-12-09T19:53:56.218Z,1.60
2022-12-09T19:56:24.087Z,2.10
2022-12-09T19:58:52.804Z,1.40
2022-12-09T20:01:32.417Z,1.40
2022-12-09T20:04:25.291Z,1.50
2022-12-09T20:06:53.827Z,1.50
2022-12-09T20:09:24.369Z,1.30
2022-12-09T20:11:52.958Z,1.30
2022-12-09T20:14:20.719Z,1.20
2022-12-09T20:16:48.053Z,1.30
2022-12-09T20:19:15.338Z,1.40
2022-12-09T20:21:42.841Z,1.30
2022-12-09T20:26:38.436Z,1.20
2022-12-09T20:29:08.419Z,1.10
2022-12-09T20:31:37.446Z,1.20
2022-12-09T20:34:08.651Z,1.20
2022-12-09T20:36:37.219Z,1.30
2022-12-09T20:39:11.130Z,1.40
2022-12-09T20:41:39.634Z,1.10
2022-12-09T20:44:06.963Z,0.90
2022-12-09T20:46:35.003Z,1.00
2022-12-09T20:49:02.622Z,0.80
2022-12-09T20:51:36.428Z,1.30
2022-12-09T20:54:05.290Z,1.10
2022-12-09T20:56:33.446Z,1.50
2022-12-09T20:59:01.524Z,1.10
2022-12-09T21:01:36.023Z,1.20
2022-12-09T21:04:06.404Z,1.10
2022-12-09T21:06:36.663Z,1.10
2022-12-09T21:09:06.768Z,1.00
2022-12-09T21:11:34.125Z,1.20
2022-12-09T21:14:03.817Z,1.10
2022-12-09T21:16:33.494Z,1.20
2022-12-09T21:19:05.179Z,1.00
2022-12-09T21:21:34.911Z,1.00
2022-12-09T21:24:02.991Z,1.00
2022-12-09T21:26:30.592Z,1.00
2022-12-09T21:29:01.129Z,0.90
2022-12-09T21:31:31.430Z,0.90
2022-12-09T21:34:04.210Z,1.10
2022-12-09T21:36:37.408Z,1.00
2022-12-09T21:39:06.395Z,1.00
2022-12-09T21:41:35.576Z,0.00
2022-12-09T21:44:04.556Z,1.10
2022-12-09T21:46:34.748Z,1.10
2022-12-09T21:49:04.515Z,1.10
2022-12-09T21:51:33.381Z,1.10
2022-12-09T21:54:01.694Z,1.20
2022-12-09T21:56:32.685Z,1.20
2022-12-09T21:59:00.814Z,1.20
2022-12-09T22:01:33.946Z,1.20
2022-12-09T22:04:02.992Z,1.20
2022-12-09T22:06:30.477Z,1.20
2022-12-09T22:08:59.584Z,1.20
2022-12-09T22:11:29.859Z,1.20
2022-12-09T22:13:59.166Z,1.20
2022-12-09T22:16:29.375Z,1.20
2022-12-09T22:18:58.583Z,1.10
2022-12-09T22:21:29.961Z,1.20
2022-12-09T22:23:59.847Z,1.10
2022-12-09T22:26:28.043Z,1.10
2022-12-09T22:28:56.864Z,1.10
2022-12-09T22:31:27.305Z,1.10
2022-12-09T22:33:58.243Z,1.10
2022-12-09T22:36:25.755Z,1.10
2022-12-09T22:38:53.792Z,1.10
2022-12-09T22:41:25.984Z,1.10
2022-12-09T22:43:54.970Z,1.10
2022-12-09T22:46:33.909Z,1.10
2022-12-09T22:49:03.752Z,1.10
2022-12-09T22:51:33.532Z,1.10
2022-12-09T22:54:02.438Z,1.10
2022-12-09T22:56:30.184Z,1.10
2022-12-09T22:58:58.999Z,1.10
2022-12-09T23:01:31.971Z,1.10
2022-12-09T23:04:00.326Z,1.10
2022-12-09T23:06:28.888Z,1.10
2022-12-09T23:08:56.525Z,1.10
2022-12-09T23:11:25.958Z,1.10
2022-12-09T23:13:54.018Z,1.10
2022-12-09T23:16:23.536Z,1.10
2022-12-09T23:18:51.330Z,1.00
2022-12-09T23:21:21.349Z,1.00
2022-12-09T23:23:51.261Z,1.00
2022-12-09T23:26:20.487Z,1.00
2022-12-09T23:28:50.423Z,1.00
2022-12-09T23:31:22.995Z,1.00
2022-12-09T23:33:52.755Z,1.00
2022-12-09T23:36:22.676Z,1.00
2022-12-09T23:38:51.311Z,0.90
2022-12-09T23:41:19.995Z,1.00
2022-12-09T23:43:48.644Z,0.90
2022-12-09T23:46:21.800Z,0.90
2022-12-09T23:48:50.419Z,0.90
2022-12-09T23:51:20.042Z,0.90
2022-12-09T23:53:49.727Z,0.90
2022-12-09T23:56:19.900Z,0.80
2022-12-09T23:58:48.747Z,0.80
